createdAt,value
2023-01-22T00:02:10.429Z,102345.63
2023-01-22T00:04:37.328Z,102346.78
2023-01-22T00:07:04.022Z,102338.94
2023-01-22T00:09:30.952Z,102331.50
2023-01-22T00:11:57.912Z,102334.22
2023-01-22T00:14:24.400Z,102325.47
2023-01-22T00:16:50.877Z,102330.50
2023-01-22T00:19:17.253Z,102330.09
2023-01-22T00:21:43.629Z,102331.56
2023-01-22T00:24:10.093Z,102344.19
2023-01-22T00:26:36.769Z,102339.34
2023-01-22T00:29:03.676Z,102331.50
2023-01-22T00:31:30.201Z,102329.22
2023-01-22T00:33:56.628Z,102325.75
2023-01-22T00:36:23.040Z,102325.94
2023-01-22T00:38:50.239Z,102325.47
2023-01-22T00:41:17.721Z,102327.53
2023-01-22T00:43:44.192Z,102325.00
2023-01-22T00:46:13.789Z,102316.47
2023-01-22T00:48:40.695Z,102319.91
2023-01-22T00:51:12.926Z,102306.22
2023-01-22T00:53:41.315Z,102304.72
2023-01-22T00:56:07.995Z,102306.88
2023-01-22T00:58:34.548Z,102313.22
2023-01-22T01:01:04.057Z,102303.25
2023-01-22T01:03:31.428Z,102312.97
2023-01-22T01:06:05.647Z,102295.84
2023-01-22T01:08:34.907Z,102305.19
2023-01-22T01:11:04.283Z,102304.31
2023-01-22T01:13:32.999Z,102314.94
2023-01-22T01:16:01.346Z,102311.75
2023-01-22T01:18:28.161Z,102301.56
2023-01-22T01:20:55.869Z,102303.69
2023-01-22T01:23:23.093Z,102304.84
2023-01-22T01:25:49.493Z,102309.47
2023-01-22T01:28:16.261Z,102305.75
2023-01-22T01:30:42.962Z,102308.94
2023-01-22T01:33:09.382Z,102319.78
2023-01-22T01:35:35.765Z,102311.94
2023-01-22T01:38:02.373Z,102308.03
2023-01-22T01:40:28.978Z,102311.28
2023-01-22T01:42:55.407Z,102306.66
2023-01-22T01:45:42.134Z,102301.66
2023-01-22T01:48:14.570Z,102300.09
2023-01-22T01:50:43.118Z,102301.50
2023-01-22T01:53:09.744Z,102298.25
2023-01-22T01:55:38.352Z,102304.69
2023-01-22T01:58:10.311Z,102306.97
2023-01-22T02:00:38.219Z,102307.44
2023-01-22T02:03:04.601Z,102302.91
2023-01-22T02:05:35.714Z,102300.50
2023-01-22T02:08:02.407Z,102294.56
2023-01-22T02:10:28.896Z,102298.50
2023-01-22T02:12:56.748Z,102300.09
2023-01-22T02:15:23.108Z,102300.78
2023-01-22T02:17:49.529Z,102298.75
2023-01-22T02:20:16.665Z,102289.97
2023-01-22T02:22:43.223Z,102297.31
2023-01-22T02:25:09.659Z,102282.06
2023-01-22T02:27:36.073Z,102299.19
2023-01-22T02:30:02.463Z,102297.13
2023-01-22T02:32:28.877Z,102293.41
2023-01-22T02:34:55.866Z,102295.06
2023-01-22T02:37:22.520Z,102289.97
2023-01-22T02:39:48.885Z,102296.41
2023-01-22T02:42:15.311Z,102299.66
2023-01-22T02:44:41.695Z,102279.31
2023-01-22T02:47:08.121Z,102290.13
2023-01-22T02:49:34.583Z,102285.75
2023-01-22T02:52:00.946Z,102292.72
2023-01-22T02:54:27.390Z,102282.28
2023-01-22T02:56:53.837Z,102291.75
2023-01-22T02:59:20.223Z,102291.81
2023-01-22T03:01:46.589Z,102299.22
2023-01-22T03:04:13.047Z,102287.19
2023-01-22T03:06:44.742Z,102289.81
2023-01-22T03:09:12.802Z,102288.66
2023-01-22T03:11:40.234Z,102296.75
2023-01-22T03:14:25.793Z,102294.69
2023-01-22T03:17:11.432Z,102290.75
2023-01-22T03:19:56.420Z,102295.16
2023-01-22T03:22:22.832Z,102288.16
2023-01-22T03:24:51.175Z,102286.63
2023-01-22T03:27:22.924Z,102273.97
2023-01-22T03:29:49.593Z,102279.09
2023-01-22T03:32:16.216Z,102275.84
2023-01-22T03:34:42.618Z,102284.44
2023-01-22T03:37:09.781Z,102289.56
2023-01-22T03:39:36.179Z,102285.88
2023-01-22T03:42:02.541Z,102287.06
2023-01-22T03:44:28.919Z,102290.31
2023-01-22T03:46:55.314Z,102296.75
2023-01-22T03:49:21.721Z,102292.75
2023-01-22T03:51:48.075Z,102298.00
2023-01-22T03:54:15.681Z,102299.03
2023-01-22T03:56:42.686Z,102297.84
2023-01-22T03:59:10.325Z,102294.81
2023-01-22T04:01:37.269Z,102291.16
2023-01-22T04:04:04.310Z,102298.53
2023-01-22T04:06:30.688Z,102302.28
2023-01-22T04:08:57.307Z,102294.88
2023-01-22T04:11:23.905Z,102306.84
2023-01-22T04:13:50.282Z,102303.81
2023-01-22T04:16:16.743Z,102306.84
2023-01-22T04:18:43.236Z,102305.44
2023-01-22T04:21:09.656Z,102305.25
2023-01-22T04:23:36.028Z,102307.53
2023-01-22T04:26:02.444Z,102307.28
2023-01-22T04:28:28.869Z,102307.31
2023-01-22T04:30:56.101Z,102301.34
2023-01-22T04:33:22.613Z,102299.91
2023-01-22T04:35:54.454Z,102291.41
2023-01-22T04:38:20.953Z,102306.22
2023-01-22T04:40:47.757Z,102297.25
2023-01-22T04:43:14.221Z,102309.47
2023-01-22T04:45:40.595Z,102298.59
2023-01-22T04:48:08.486Z,102308.28
2023-01-22T04:50:34.969Z,102309.44
2023-01-22T04:53:01.562Z,102309.22
2023-01-22T04:55:28.357Z,102303.22
2023-01-22T04:57:56.195Z,102308.06
2023-01-22T05:00:23.450Z,102308.75
2023-01-22T05:02:50.136Z,102301.84
2023-01-22T05:05:16.700Z,102299.47
2023-01-22T05:07:43.145Z,102296.75
2023-01-22T05:10:10.057Z,102314.56
2023-01-22T05:12:36.512Z,102298.09
2023-01-22T05:15:07.210Z,102294.47
2023-01-22T05:17:35.974Z,102302.53
2023-01-22T05:20:02.373Z,102297.19
2023-01-22T05:22:28.733Z,102297.84
2023-01-22T05:24:55.261Z,102295.25
2023-01-22T05:27:21.643Z,102300.59
2023-01-22T05:29:47.995Z,102302.72
2023-01-22T05:32:15.598Z,102299.91
2023-01-22T05:34:42.086Z,102309.66
2023-01-22T05:37:08.490Z,102307.28
2023-01-22T05:39:34.913Z,102300.28
2023-01-22T05:42:01.282Z,102302.72
2023-01-22T05:44:27.668Z,102302.03
2023-01-22T05:46:54.093Z,102302.25
2023-01-22T05:49:20.452Z,102302.28
2023-01-22T05:51:46.937Z,102300.88
2023-01-22T05:54:13.380Z,102294.13
2023-01-22T05:56:39.743Z,102294.22
2023-01-22T05:59:06.109Z,102301.34
2023-01-22T06:01:32.501Z,102300.44
2023-01-22T06:03:58.976Z,102299.75
2023-01-22T06:06:25.377Z,102298.59
2023-01-22T06:08:52.764Z,102304.13
2023-01-22T06:11:19.483Z,102304.13
2023-01-22T06:13:46.619Z,102300.34
2023-01-22T06:16:13.108Z,102291.16
2023-01-22T06:18:39.501Z,102298.78
2023-01-22T06:21:07.047Z,102295.97
2023-01-22T06:23:33.783Z,102304.81
2023-01-22T06:26:01.574Z,102296.03
2023-01-22T06:28:28.189Z,102296.97
2023-01-22T06:31:10.223Z,102304.56
2023-01-22T06:33:39.723Z,102298.09
2023-01-22T06:36:06.400Z,102305.47
2023-01-22T06:38:33.074Z,102308.00
2023-01-22T06:41:00.321Z,102312.19
2023-01-22T06:43:27.552Z,102310.56
2023-01-22T06:45:54.369Z,102310.31
2023-01-22T06:48:20.938Z,102312.19
2023-01-22T06:50:47.344Z,102318.88
2023-01-22T06:53:14.097Z,102323.50
2023-01-22T06:55:40.499Z,102322.56
2023-01-22T06:58:06.999Z,102319.72
2023-01-22T07:00:33.486Z,102326.25
2023-01-22T07:02:59.932Z,102329.47
2023-01-22T07:05:27.354Z,102332.72
2023-01-22T07:07:54.644Z,102323.06
2023-01-22T07:10:21.753Z,102335.97
2023-01-22T07:12:49.479Z,102338.31
2023-01-22T07:15:15.979Z,102341.75
2023-01-22T07:17:42.355Z,102354.47
2023-01-22T07:20:09.550Z,102348.22
2023-01-22T07:22:35.993Z,102345.69
2023-01-22T07:25:02.414Z,102351.28
2023-01-22T07:27:30.299Z,102355.19
2023-01-22T07:29:56.690Z,102354.00
2023-01-22T07:32:23.138Z,102358.44
2023-01-22T07:34:49.543Z,102364.94
2023-01-22T07:37:15.926Z,102369.28
2023-01-22T07:39:42.286Z,102372.78
2023-01-22T07:42:08.723Z,102373.25
2023-01-22T07:44:37.020Z,102372.28
2023-01-22T07:47:03.528Z,102382.69
2023-01-22T07:49:29.904Z,102372.78
2023-01-22T07:51:56.341Z,102378.56
2023-01-22T07:54:22.810Z,102376.22
2023-01-22T07:56:49.273Z,102378.09
2023-01-22T07:59:15.666Z,102381.28
2023-01-22T08:01:42.087Z,102377.81
2023-01-22T08:04:08.492Z,102388.66
2023-01-22T08:06:34.956Z,102391.19
2023-01-22T08:09:01.378Z,102389.09
2023-01-22T08:11:28.371Z,102392.09
2023-01-22T08:13:54.911Z,102391.41
2023-01-22T08:16:21.707Z,102387.72
2023-01-22T08:18:48.248Z,102400.00
2023-01-22T08:21:14.675Z,102387.94
2023-01-22T08:23:41.113Z,102392.28
2023-01-22T08:26:07.467Z,102394.81
2023-01-22T08:28:33.883Z,102397.19
2023-01-22T08:31:02.159Z,102396.91
2023-01-22T08:33:29.130Z,102395.03
2023-01-22T08:35:55.513Z,102394.56
2023-01-22T08:38:22.007Z,102401.84
2023-01-22T08:40:49.877Z,102395.00
2023-01-22T08:43:16.292Z,102392.19
2023-01-22T08:45:43.019Z,102392.19
2023-01-22T08:48:09.435Z,102393.63
2023-01-22T08:50:35.901Z,102402.38
2023-01-22T08:53:02.307Z,102396.38
2023-01-22T08:55:28.697Z,102403.78
2023-01-22T08:57:55.988Z,102401.91
2023-01-22T09:00:23.353Z,102400.47
2023-01-22T09:02:49.722Z,102399.47
2023-01-22T09:05:16.205Z,102392.06
2023-01-22T09:07:42.574Z,102398.72
2023-01-22T09:10:12.190Z,102399.00
2023-01-22T09:12:40.329Z,102391.56
2023-01-22T09:15:07.730Z,102389.69
2023-01-22T09:17:34.121Z,102395.72
2023-01-22T09:20:00.514Z,102397.69
2023-01-22T09:22:26.888Z,102392.69
2023-01-22T09:24:54.796Z,102394.06
2023-01-22T09:27:21.234Z,102387.19
2023-01-22T09:29:47.607Z,102394.34
2023-01-22T09:32:14.007Z,102390.38
2023-01-22T09:34:40.385Z,102395.66
2023-01-22T09:37:07.820Z,102389.16
2023-01-22T09:39:34.243Z,102393.81
2023-01-22T09:42:03.166Z,102395.19
2023-01-22T09:44:38.096Z,102399.84
2023-01-22T09:47:07.605Z,102397.53
2023-01-22T09:50:07.992Z,102399.44
2023-01-22T09:52:37.042Z,102402.56
2023-01-22T09:55:03.705Z,102401.72
2023-01-22T09:57:32.386Z,102401.00
2023-01-22T09:59:59.141Z,102405.13
2023-01-22T10:02:30.901Z,102400.22
2023-01-22T10:05:31.557Z,102399.50
2023-01-22T10:08:04.900Z,102397.41
2023-01-22T10:10:33.075Z,102410.66
2023-01-22T10:13:18.565Z,102405.75
2023-01-22T10:15:45.608Z,102392.97
2023-01-22T10:18:27.993Z,102400.22
2023-01-22T10:20:55.003Z,102398.16
2023-01-22T10:23:23.937Z,102398.22
2023-01-22T10:25:54.463Z,102399.41
2023-01-22T10:28:24.796Z,102396.88
2023-01-22T10:30:57.577Z,102395.72
2023-01-22T10:33:25.441Z,102389.44
2023-01-22T10:35:54.220Z,102393.16
2023-01-22T10:38:30.652Z,102394.75
2023-01-22T10:41:02.157Z,102383.38
2023-01-22T10:43:36.565Z,102391.81
2023-01-22T10:46:16.947Z,102391.50
2023-01-22T10:48:43.412Z,102381.41
2023-01-22T10:51:17.637Z,102385.41
2023-01-22T10:53:47.903Z,102385.00
2023-01-22T10:56:25.390Z,102376.88
2023-01-22T10:58:52.083Z,102373.50
2023-01-22T11:01:39.468Z,102379.41
2023-01-22T11:04:23.308Z,102381.13
2023-01-22T11:06:56.552Z,102376.69
2023-01-22T11:09:34.097Z,102388.41
2023-01-22T11:12:08.190Z,102383.22
2023-01-22T11:14:35.944Z,102378.25
2023-01-22T11:17:10.178Z,102382.94
2023-01-22T11:19:43.226Z,102377.84
2023-01-22T11:22:20.846Z,102373.44
2023-01-22T11:24:48.407Z,102376.31
2023-01-22T11:27:29.696Z,102379.41
2023-01-22T11:30:11.285Z,102383.75
2023-01-22T11:32:51.238Z,102375.41
2023-01-22T11:35:42.835Z,102373.03
2023-01-22T11:38:48.992Z,102375.56
2023-01-22T11:41:37.552Z,102374.00
2023-01-22T11:44:18.096Z,102381.28
2023-01-22T11:47:16.361Z,102377.41
2023-01-22T11:50:04.809Z,102381.34
2023-01-22T11:53:13.796Z,102382.06
2023-01-22T11:55:48.525Z,102374.41
2023-01-22T11:58:43.024Z,102374.97
2023-01-22T12:01:31.873Z,102374.00
2023-01-22T12:04:29.022Z,102372.94
2023-01-22T12:07:14.305Z,102367.03
2023-01-22T12:09:52.566Z,102364.75
2023-01-22T12:12:18.887Z,102372.38
2023-01-22T12:15:04.049Z,102371.06
2023-01-22T12:17:39.771Z,102368.78
2023-01-22T12:20:19.316Z,102371.38
2023-01-22T12:23:00.818Z,102369.09
2023-01-22T12:25:45.915Z,102378.88
2023-01-22T12:28:16.679Z,102374.66
2023-01-22T12:30:59.166Z,102378.75
2023-01-22T12:33:28.891Z,102375.75
2023-01-22T12:35:58.161Z,102389.53
2023-01-22T12:38:41.894Z,102386.88
2023-01-22T12:41:44.362Z,102385.47
2023-01-22T12:44:31.199Z,102384.06
2023-01-22T12:47:29.356Z,102384.06
2023-01-22T12:49:55.832Z,102383.00
2023-01-22T12:52:36.985Z,102381.00
2023-01-22T12:55:22.141Z,102378.03
2023-01-22T12:57:48.553Z,102383.69
2023-01-22T13:00:25.875Z,102377.69
2023-01-22T13:02:52.386Z,102380.50
2023-01-22T13:05:26.793Z,102377.81
2023-01-22T13:08:17.400Z,102378.16
2023-01-22T13:10:57.959Z,102371.50
2023-01-22T13:13:39.734Z,102373.50
2023-01-22T13:16:16.787Z,102380.16
2023-01-22T13:18:49.673Z,102387.84
2023-01-22T13:21:18.243Z,102386.22
2023-01-22T13:23:46.799Z,102386.44
2023-01-22T13:26:18.955Z,102377.88
2023-01-22T13:29:00.759Z,102387.28
2023-01-22T13:31:27.652Z,102378.44
2023-01-22T13:33:57.984Z,102384.22
2023-01-22T13:36:25.253Z,102382.97
2023-01-22T13:38:53.922Z,102382.81
2023-01-22T13:41:35.754Z,102381.25
2023-01-22T13:44:03.386Z,102390.91
2023-01-22T13:46:30.080Z,102395.72
2023-01-22T13:49:01.890Z,102393.38
2023-01-22T13:51:28.896Z,102395.72
2023-01-22T13:53:55.496Z,102392.16
2023-01-22T13:56:23.310Z,102396.16
2023-01-22T13:58:49.864Z,102385.69
2023-01-22T14:01:34.295Z,102391.41
2023-01-22T14:04:06.071Z,102387.34
2023-01-22T14:06:47.951Z,102394.56
2023-01-22T14:09:25.077Z,102393.09
2023-01-22T14:11:51.464Z,102394.94
2023-01-22T14:14:19.264Z,102387.34
2023-01-22T14:16:45.906Z,102393.53
2023-01-22T14:19:12.784Z,102398.69
2023-01-22T14:21:39.305Z,102390.97
2023-01-22T14:24:06.099Z,102401.88
2023-01-22T14:26:32.508Z,102401.53
2023-01-22T14:28:58.889Z,102401.53
2023-01-22T14:31:25.334Z,102407.47
2023-01-22T14:33:51.774Z,102410.47
2023-01-22T14:36:20.191Z,102417.78
2023-01-22T14:38:48.587Z,102420.75
2023-01-22T14:41:14.942Z,102425.84
2023-01-22T14:43:41.333Z,102430.72
2023-01-22T14:46:08.137Z,102422.69
2023-01-22T14:48:34.563Z,102426.31
2023-01-22T14:51:00.986Z,102435.97
2023-01-22T14:53:27.467Z,102429.22
2023-01-22T14:55:53.833Z,102424.75
2023-01-22T14:58:20.322Z,102434.78
2023-01-22T15:00:46.787Z,102434.53
2023-01-22T15:03:13.191Z,102437.41
2023-01-22T15:05:39.584Z,102437.19
2023-01-22T15:08:06.383Z,102438.50
2023-01-22T15:10:32.946Z,102440.88
2023-01-22T15:12:59.430Z,102449.88
2023-01-22T15:15:28.252Z,102447.31
2023-01-22T15:17:56.853Z,102451.94
2023-01-22T15:20:23.699Z,102468.19
2023-01-22T15:22:50.568Z,102462.88
2023-01-22T15:25:17.153Z,102461.72
2023-01-22T15:27:44.440Z,102463.31
2023-01-22T15:30:12.243Z,102461.16
2023-01-22T15:32:38.673Z,102466.28
2023-01-22T15:35:05.355Z,102469.06
2023-01-22T15:37:31.852Z,102471.72
2023-01-22T15:39:58.212Z,102476.16
2023-01-22T15:42:24.581Z,102482.63
2023-01-22T15:44:51.058Z,102482.63
2023-01-22T15:47:17.423Z,102488.00
2023-01-22T15:49:43.874Z,102485.19
2023-01-22T15:52:10.305Z,102490.53
2023-01-22T15:54:36.674Z,102495.66
2023-01-22T15:57:03.166Z,102497.66
2023-01-22T15:59:29.578Z,102498.13
2023-01-22T16:01:55.984Z,102492.81
2023-01-22T16:04:22.415Z,102492.03
2023-01-22T16:06:48.840Z,102485.97
2023-01-22T16:09:15.211Z,102490.50
2023-01-22T16:11:41.626Z,102489.53
2023-01-22T16:14:08.042Z,102485.41
2023-01-22T16:16:38.013Z,102484.44
2023-01-22T16:19:06.482Z,102490.50
2023-01-22T16:21:32.923Z,102491.41
2023-01-22T16:24:00.339Z,102476.53
2023-01-22T16:26:30.260Z,102488.47
2023-01-22T16:28:58.074Z,102484.03
2023-01-22T16:31:27.298Z,102478.94
2023-01-22T16:33:56.707Z,102481.47
2023-01-22T16:36:25.244Z,102475.00
2023-01-22T16:38:51.787Z,102477.97
2023-01-22T16:41:25.318Z,102487.47
2023-01-22T16:44:10.021Z,102487.28
2023-01-22T16:46:41.510Z,102483.13
2023-01-22T16:49:13.620Z,102476.09
2023-01-22T16:51:42.821Z,102483.06
2023-01-22T16:54:16.400Z,102483.47
2023-01-22T16:56:42.776Z,102488.16
2023-01-22T16:59:10.641Z,102491.81
2023-01-22T17:01:39.531Z,102484.13
2023-01-22T17:04:07.683Z,102494.09
2023-01-22T17:06:56.710Z,102485.88
2023-01-22T17:09:25.320Z,102488.53
2023-01-22T17:11:53.638Z,102486.81
2023-01-22T17:14:23.305Z,102484.47
2023-01-22T17:16:50.103Z,102489.22
2023-01-22T17:19:17.070Z,102488.78
2023-01-22T17:21:44.042Z,102491.56
2023-01-22T17:24:13.891Z,102492.97
2023-01-22T17:26:41.946Z,102496.84
2023-01-22T17:29:09.400Z,102497.59
2023-01-22T17:31:36.765Z,102499.94
2023-01-22T17:34:04.072Z,102501.09
2023-01-22T17:36:31.038Z,102498.06
2023-01-22T17:38:57.800Z,102502.47
2023-01-22T17:41:25.298Z,102503.13
2023-01-22T17:43:52.466Z,102509.03
2023-01-22T17:46:20.764Z,102508.84
2023-01-22T17:48:47.928Z,102509.28
2023-01-22T17:51:16.726Z,102506.66
2023-01-22T17:53:44.623Z,102509.22
2023-01-22T17:56:12.338Z,102513.06
2023-01-22T17:58:44.391Z,102516.75
2023-01-22T18:01:12.987Z,102516.81
2023-01-22T18:03:39.453Z,102522.63
2023-01-22T18:06:06.170Z,102517.53
2023-01-22T18:08:34.643Z,102516.09
2023-01-22T18:11:19.293Z,102524.50
2023-01-22T18:13:46.714Z,102523.78
2023-01-22T18:16:15.131Z,102527.97
2023-01-22T18:18:42.521Z,102530.53
2023-01-22T18:21:16.138Z,102527.91
2023-01-22T18:23:43.543Z,102533.69
2023-01-22T18:26:10.490Z,102532.34
2023-01-22T18:28:37.202Z,102538.81
2023-01-22T18:31:14.943Z,102536.78
2023-01-22T18:33:43.203Z,102542.78
2023-01-22T18:36:13.689Z,102550.16
2023-01-22T18:38:40.640Z,102539.00
2023-01-22T18:41:12.149Z,102539.75
2023-01-22T18:43:38.567Z,102541.63
2023-01-22T18:46:07.220Z,102543.44
2023-01-22T18:48:34.123Z,102546.19
2023-01-22T18:51:00.650Z,102554.53
2023-01-22T18:53:27.124Z,102549.63
2023-01-22T18:55:53.535Z,102556.84
2023-01-22T18:58:33.993Z,102556.00
2023-01-22T19:01:11.684Z,102560.38
2023-01-22T19:03:40.147Z,102562.69
2023-01-22T19:06:15.814Z,102564.13
2023-01-22T19:08:44.398Z,102561.25
2023-01-22T19:11:12.219Z,102566.63
2023-01-22T19:13:39.729Z,102569.88
2023-01-22T19:16:10.912Z,102573.31
2023-01-22T19:18:38.234Z,102576.00
2023-01-22T19:21:06.678Z,102577.50
2023-01-22T19:23:34.608Z,102575.59
2023-01-22T19:26:31.272Z,102580.47
2023-01-22T19:29:00.744Z,102587.69
2023-01-22T19:31:32.322Z,102578.94
2023-01-22T19:33:59.542Z,102589.81
2023-01-22T19:36:28.512Z,102590.03
2023-01-22T19:38:55.808Z,102588.88
2023-01-22T19:41:23.246Z,102599.31
2023-01-22T19:43:57.623Z,102591.84
2023-01-22T19:46:25.928Z,102597.00
2023-01-22T19:48:53.092Z,102607.66
2023-01-22T19:51:21.766Z,102604.91
2023-01-22T19:53:48.715Z,102598.84
2023-01-22T19:56:24.383Z,102599.06
2023-01-22T19:58:53.897Z,102599.06
2023-01-22T20:01:21.096Z,102609.50
2023-01-22T20:03:47.835Z,102604.84
2023-01-22T20:06:16.045Z,102600.44
2023-01-22T20:08:42.902Z,102612.22
2023-01-22T20:11:10.605Z,102606.66
2023-01-22T20:13:38.366Z,102601.94
2023-01-22T20:16:06.610Z,102612.19
2023-01-22T20:18:33.900Z,102616.09
2023-01-22T20:21:02.184Z,102616.38
2023-01-22T20:23:29.270Z,102621.72
2023-01-22T20:25:56.242Z,102618.03
2023-01-22T20:28:22.796Z,102622.38
2023-01-22T20:31:00.918Z,102617.22
2023-01-22T20:33:27.960Z,102617.22
2023-01-22T20:36:02.462Z,102627.31
2023-01-22T20:38:29.130Z,102619.50
2023-01-22T20:40:59.740Z,102620.47
2023-01-22T20:43:26.143Z,102620.47
2023-01-22T20:46:01.563Z,102623.75
2023-01-22T20:48:29.661Z,102616.31
2023-01-22T20:50:56.312Z,102626.50
2023-01-22T20:53:23.182Z,102620.03
2023-01-22T20:55:58.547Z,102620.03
2023-01-22T20:58:25.206Z,102626.09
2023-01-22T21:00:51.602Z,102625.50
2023-01-22T21:03:17.988Z,102627.91
2023-01-22T21:05:44.348Z,102634.66
2023-01-22T21:08:10.807Z,102635.78
2023-01-22T21:10:37.207Z,102631.66
2023-01-22T21:13:03.576Z,102633.94
2023-01-22T21:15:30.334Z,102640.88
2023-01-22T21:17:56.687Z,102636.94
2023-01-22T21:20:23.119Z,102633.94
2023-01-22T21:22:49.622Z,102633.31
2023-01-22T21:25:16.005Z,102636.66
2023-01-22T21:27:42.396Z,102634.28
2023-01-22T21:30:09.285Z,102637.00
2023-01-22T21:32:35.646Z,102628.09
2023-01-22T21:35:02.328Z,102629.22
2023-01-22T21:37:28.771Z,102635.75
2023-01-22T21:39:55.151Z,102632.72
2023-01-22T21:42:41.863Z,102632.66
2023-01-22T21:45:28.343Z,102626.09
2023-01-22T21:47:54.709Z,102634.28
2023-01-22T21:50:21.473Z,102632.78
2023-01-22T21:52:53.030Z,102638.56
2023-01-22T21:55:21.046Z,102631.41
2023-01-22T21:57:47.551Z,102632.41
2023-01-22T22:00:14.345Z,102637.94
2023-01-22T22:02:40.766Z,102633.41
2023-01-22T22:05:07.665Z,102629.63
2023-01-22T22:07:34.036Z,102630.31
2023-01-22T22:10:00.414Z,102624.31
2023-01-22T22:12:31.116Z,102616.44
2023-01-22T22:14:57.614Z,102620.28
2023-01-22T22:17:23.993Z,102613.06
2023-01-22T22:19:50.352Z,102619.69
2023-01-22T22:22:16.780Z,102623.22
2023-01-22T22:24:43.183Z,102629.97
2023-01-22T22:27:09.555Z,102629.13
2023-01-22T22:29:36.150Z,102626.56
2023-01-22T22:32:02.599Z,102632.75
2023-01-22T22:34:29.009Z,102632.34
2023-01-22T22:36:55.384Z,102627.44
2023-01-22T22:39:21.768Z,102635.97
2023-01-22T22:41:48.139Z,102649.84
2023-01-22T22:44:15.978Z,102647.72
2023-01-22T22:46:42.375Z,102648.50
2023-01-22T22:49:11.807Z,102647.38
2023-01-22T22:51:40.141Z,102644.69
2023-01-22T22:54:11.516Z,102644.97
2023-01-22T22:56:37.902Z,102651.31
2023-01-22T22:59:05.107Z,102644.72
2023-01-22T23:01:33.025Z,102650.38
2023-01-22T23:04:00.489Z,102648.38
2023-01-22T23:06:29.532Z,102644.59
2023-01-22T23:08:56.780Z,102642.78
2023-01-22T23:11:30.946Z,102641.22
2023-01-22T23:14:01.186Z,102640.59
2023-01-22T23:16:29.562Z,102644.53
2023-01-22T23:18:57.971Z,102644.06
2023-01-22T23:21:25.408Z,102639.91
2023-01-22T23:23:52.999Z,102638.81
2023-01-22T23:26:26.419Z,102642.00
2023-01-22T23:28:54.996Z,102642.44
2023-01-22T23:31:21.462Z,102643.47
2023-01-22T23:33:48.591Z,102638.81
2023-01-22T23:36:17.108Z,102643.09
2023-01-22T23:38:44.345Z,102635.22
2023-01-22T23:41:13.847Z,102635.63
2023-01-22T23:43:41.447Z,102648.16
2023-01-22T23:46:15.216Z,102646.88
2023-01-22T23:48:41.959Z,102644.31
2023-01-22T23:51:09.407Z,102648.31
2023-01-22T23:53:40.237Z,102642.22
2023-01-22T23:56:07.907Z,102655.75
2023-01-22T23:58:34.653Z,102652.03
